Pleasant Lake, Michigan
Current Conditions -  °F | °C
As of 10:56 PM on Saturday 22 Nov 2014 (Local Time) from KJXN Reporting Station
Overcast Overcast  
Wind Chill: 50°   Ceiling: 2700
Heat Index: 50°   Visibility: 10mi
Dew Point: 44°   Wind: 12mph
Humidity: 80%   Direction: 210°SSW
Pressure: 29.93"   Gusts: 22mph
Location:  42.38°N, 84.35°W
Report Text: KJXN 230356Z 21010G19KT 10SM BKN027 OVC038 10/07 A2993 RMK AO2 SLP140 T01000067
Loading
Personal Weather Stations






























Interactive Weather Map New forecast layout! Learn more

10-Day Weather Forecast

Advertisements
Track Severe Weather on mobile